Time;durP1;ratioP1;P1;durP2;ratioP2;P2;SDS_P1;SDS_P2;PMS_P1;PMS_P2;Temp;Humidity;BMP_temperature;BMP_pressure;BME280_temperature;BME280_humidity;BME280_pressure;Samples;Min_cycle;Max_cycle;Signal;HPM_P1;HPM_P2
2021/08/15 00:00:41;;;;;;;1.00;0.80;;;16.40;79.30;;;;;;4985629;28;20049;-80
2021/08/15 00:03:09;;;;;;;1.20;0.75;;;16.40;79.20;;;;;;4975380;28;20061;-81
2021/08/15 00:05:34;;;;;;;1.40;1.00;;;16.40;79.20;;;;;;4999830;28;20037;-82
2021/08/15 00:08:00;;;;;;;0.98;0.80;;;16.40;79.10;;;;;;4979938;28;20034;-82
2021/08/15 00:10:26;;;;;;;0.95;0.85;;;16.40;79.00;;;;;;5013518;28;20029;-82
2021/08/15 00:12:52;;;;;;;1.58;0.90;;;16.60;79.10;;;;;;5013519;28;20111;-82
2021/08/15 00:15:19;;;;;;;1.48;0.90;;;16.50;79.10;;;;;;5014677;28;20041;-82
2021/08/15 00:17:45;;;;;;;1.02;0.73;;;16.50;79.00;;;;;;5015331;28;20083;-82
2021/08/15 00:20:11;;;;;;;0.65;0.65;;;16.50;79.10;;;;;;5014874;28;20045;-82
2021/08/15 00:22:38;;;;;;;0.82;0.70;;;16.40;79.10;;;;;;5014721;28;20049;-82
2021/08/15 00:25:07;;;;;;;0.98;0.73;;;16.50;79.20;;;;;;5014818;28;20052;-82
2021/08/15 00:27:33;;;;;;;1.02;0.70;;;16.50;79.30;;;;;;4974332;28;20370;-82
2021/08/15 00:29:58;;;;;;;0.77;0.60;;;16.50;79.30;;;;;;5013104;28;20113;-82
2021/08/15 00:32:24;;;;;;;0.80;0.75;;;16.50;79.40;;;;;;4978872;28;20044;-82
2021/08/15 00:34:50;;;;;;;0.90;0.70;;;16.50;79.40;;;;;;4995097;28;20046;-82
2021/08/15 00:37:15;;;;;;;1.13;0.90;;;16.50;79.50;;;;;;4978716;28;20030;-82
2021/08/15 00:39:41;;;;;;;1.02;0.82;;;16.50;79.60;;;;;;4995552;28;20383;-83
2021/08/15 00:42:07;;;;;;;1.23;0.80;;;16.40;79.60;;;;;;5012729;28;20038;-82
2021/08/15 00:44:33;;;;;;;1.13;0.70;;;16.50;79.70;;;;;;4995112;28;20120;-83
2021/08/15 00:46:59;;;;;;;0.95;0.80;;;16.40;79.70;;;;;;5029130;28;20120;-82
2021/08/15 00:49:24;;;;;;;0.70;0.68;;;16.40;79.70;;;;;;4998417;28;20033;-83
2021/08/15 00:51:50;;;;;;;0.70;0.60;;;16.50;79.80;;;;;;4996142;28;20505;-82
2021/08/15 00:54:16;;;;;;;0.95;0.70;;;16.50;79.80;;;;;;4994861;28;20034;-82
2021/08/15 00:56:45;;;;;;;0.63;0.60;;;16.50;79.70;;;;;;4994711;28;20041;-82
2021/08/15 00:59:11;;;;;;;1.48;0.80;;;16.50;79.70;;;;;;4995264;28;20057;-82
2021/08/15 01:01:37;;;;;;;0.93;0.60;;;16.50;79.70;;;;;;4977358;28;20042;-82
2021/08/15 01:04:03;;;;;;;0.95;0.65;;;16.60;79.70;;;;;;4978589;28;20046;-82
2021/08/15 01:06:31;;;;;;;1.83;0.90;;;16.60;79.70;;;;;;4994613;28;20060;-82
2021/08/15 01:08:57;;;;;;;1.75;1.05;;;16.60;79.70;;;;;;4978281;28;20054;-84
2021/08/15 01:11:23;;;;;;;1.80;1.00;;;16.60;79.70;;;;;;5012749;28;20500;-83
2021/08/15 01:13:49;;;;;;;1.25;0.80;;;16.60;79.70;;;;;;4997730;28;20128;-82
2021/08/15 01:16:14;;;;;;;1.92;1.00;;;16.60;79.80;;;;;;4997921;28;20417;-82
2021/08/15 01:18:43;;;;;;;0.95;0.70;;;16.60;79.80;;;;;;4997621;28;20053;-82
2021/08/15 01:21:13;;;;;;;1.35;0.88;;;16.60;79.80;;;;;;4997792;28;20052;-82
2021/08/15 01:23:42;;;;;;;1.42;0.80;;;16.60;79.80;;;;;;4997762;28;20084;-82
2021/08/15 01:26:09;;;;;;;1.13;0.70;;;16.60;79.80;;;;;;4998432;28;20037;-82
2021/08/15 01:28:36;;;;;;;1.50;0.80;;;16.70;79.90;;;;;;5014508;28;20469;-82
2021/08/15 01:31:02;;;;;;;1.15;0.80;;;16.70;80.00;;;;;;5031788;28;20042;-82
2021/08/15 01:33:31;;;;;;;0.75;0.68;;;16.60;80.00;;;;;;4981474;28;20071;-82
2021/08/15 01:35:58;;;;;;;0.77;0.55;;;16.60;80.10;;;;;;5031563;28;20559;-82
2021/08/15 01:38:26;;;;;;;0.85;0.70;;;16.60;80.10;;;;;;4997571;28;20124;-82
2021/08/15 01:40:53;;;;;;;1.05;0.70;;;16.60;80.10;;;;;;4997845;28;20481;-82
2021/08/15 01:43:19;;;;;;;1.42;1.00;;;16.60;80.10;;;;;;5013428;28;20048;-82
2021/08/15 01:45:45;;;;;;;1.27;0.82;;;16.60;80.20;;;;;;4997446;28;20034;-82
2021/08/15 01:48:11;;;;;;;2.78;1.00;;;16.50;80.30;;;;;;5014218;28;20383;-82
2021/08/15 01:50:37;;;;;;;1.58;0.80;;;16.50;80.40;;;;;;4996280;28;20041;-82
2021/08/15 01:53:10;;;;;;;0.85;0.80;;;16.50;80.50;;;;;;5012153;28;20034;-82
2021/08/15 01:55:38;;;;;;;0.90;0.70;;;16.50;80.60;;;;;;4964141;28;20038;-82
2021/08/15 01:58:04;;;;;;;1.65;0.90;;;16.50;80.60;;;;;;5000153;28;20034;-82
2021/08/15 02:00:30;;;;;;;0.95;0.80;;;16.50;80.70;;;;;;4997177;28;20128;-82
2021/08/15 02:02:55;;;;;;;0.70;0.70;;;16.40;80.70;;;;;;4980870;28;20124;-82
2021/08/15 02:05:21;;;;;;;1.02;0.82;;;16.40;80.80;;;;;;5031454;28;20467;-82
2021/08/15 02:07:47;;;;;;;0.90;0.70;;;16.40;80.80;;;;;;4978198;28;20030;-82
2021/08/15 02:10:14;;;;;;;0.95;0.60;;;16.40;80.80;;;;;;4993895;28;20041;-82
2021/08/15 02:12:40;;;;;;;0.90;0.75;;;16.40;80.90;;;;;;4962834;28;20470;-82
2021/08/15 02:15:06;;;;;;;1.05;0.80;;;16.40;80.90;;;;;;5011449;28;20046;-82
2021/08/15 02:17:32;;;;;;;0.93;0.60;;;16.40;81.00;;;;;;5004360;28;20113;-82
2021/08/15 02:19:57;;;;;;;2.65;0.98;;;16.40;81.00;;;;;;4981524;28;20125;-82
2021/08/15 02:22:23;;;;;;;1.00;0.85;;;16.40;81.00;;;;;;4997625;28;20107;-82
2021/08/15 02:24:49;;;;;;;0.88;0.73;;;16.40;81.10;;;;;;4980803;28;20080;-82
2021/08/15 02:27:14;;;;;;;0.70;0.60;;;16.30;81.00;;;;;;4997251;28;20052;-82
2021/08/15 02:29:40;;;;;;;1.48;0.80;;;16.30;81.00;;;;;;4981086;28;20070;-82
2021/08/15 02:32:06;;;;;;;1.08;0.80;;;16.30;81.10;;;;;;4980825;28;20061;-82
2021/08/15 02:34:32;;;;;;;0.93;0.68;;;16.30;81.20;;;;;;4997416;28;20057;-82
2021/08/15 02:36:58;;;;;;;1.42;0.90;;;16.30;81.20;;;;;;4997252;28;20046;-82
2021/08/15 02:39:23;;;;;;;0.73;0.70;;;16.30;81.30;;;;;;5016366;28;20033;-82
2021/08/15 02:41:49;;;;;;;1.65;0.90;;;16.30;81.30;;;;;;5034752;28;20097;-82
2021/08/15 02:44:15;;;;;;;1.35;0.90;;;16.30;81.40;;;;;;5000183;28;20077;-82
2021/08/15 02:46:40;;;;;;;0.90;0.70;;;16.20;81.40;;;;;;5000345;28;20046;-82
2021/08/15 02:49:06;;;;;;;1.27;0.90;;;16.20;81.50;;;;;;4983797;28;20056;-82
2021/08/15 02:51:32;;;;;;;1.05;0.70;;;16.20;81.60;;;;;;5016954;28;20124;-81
2021/08/15 02:53:58;;;;;;;0.93;0.70;;;16.20;81.60;;;;;;5034180;28;20041;-82
2021/08/15 02:56:24;;;;;;;1.48;1.00;;;16.20;81.60;;;;;;5016477;28;20037;-81
2021/08/15 02:58:50;;;;;;;0.80;0.70;;;16.20;81.70;;;;;;4983639;28;20049;-82
2021/08/15 03:01:15;;;;;;;0.93;0.68;;;16.20;81.60;;;;;;5033985;28;20037;-82
2021/08/15 03:03:41;;;;;;;1.00;0.80;;;16.20;81.60;;;;;;4983732;28;20045;-81
2021/08/15 03:06:07;;;;;;;1.10;0.82;;;16.20;81.70;;;;;;5003818;28;20042;-81
2021/08/15 03:08:33;;;;;;;1.08;0.80;;;16.10;81.70;;;;;;5015962;28;20034;-81
2021/08/15 03:10:58;;;;;;;1.40;1.00;;;16.10;81.80;;;;;;4982257;28;20030;-82
2021/08/15 03:13:24;;;;;;;0.95;0.70;;;16.10;81.90;;;;;;5015514;28;20118;-81
2021/08/15 03:15:50;;;;;;;0.88;0.70;;;16.10;81.90;;;;;;5034182;28;20064;-81
2021/08/15 03:18:18;;;;;;;0.98;0.68;;;16.10;81.90;;;;;;4965863;28;20402;-81
2021/08/15 03:20:45;;;;;;;0.80;0.80;;;16.10;82.00;;;;;;4980859;28;20108;-82
2021/08/15 03:23:11;;;;;;;0.85;0.77;;;16.00;82.10;;;;;;4980160;28;20130;-81
2021/08/15 03:25:37;;;;;;;0.70;0.70;;;16.00;82.10;;;;;;5005624;28;20041;-82
2021/08/15 03:28:05;;;;;;;0.98;0.70;;;16.10;82.20;;;;;;5016218;28;20049;-82
2021/08/15 03:30:31;;;;;;;0.63;0.63;;;16.00;82.20;;;;;;5016175;28;20029;-82
2021/08/15 03:32:57;;;;;;;1.35;0.70;;;16.00;82.20;;;;;;4979922;28;20440;-82
2021/08/15 03:35:23;;;;;;;1.17;0.82;;;15.90;82.20;;;;;;4979908;28;20050;-82
2021/08/15 03:37:48;;;;;;;1.17;0.90;;;15.90;82.20;;;;;;5004189;28;20104;-82
2021/08/15 03:40:14;;;;;;;1.40;0.73;;;15.90;82.30;;;;;;4996237;28;20084;-82
2021/08/15 03:42:40;;;;;;;1.17;0.88;;;15.90;82.30;;;;;;4996068;28;20449;-82
2021/08/15 03:45:07;;;;;;;0.95;0.80;;;15.90;82.40;;;;;;4979527;28;20037;-81
2021/08/15 03:47:34;;;;;;;1.50;0.90;;;15.90;82.40;;;;;;5013493;28;20065;-82
2021/08/15 03:50:01;;;;;;;1.10;0.82;;;15.90;82.40;;;;;;4963450;28;20038;-82
2021/08/15 03:52:27;;;;;;;0.68;0.60;;;15.90;82.50;;;;;;4995844;28;20658;-82
2021/08/15 03:54:52;;;;;;;0.60;0.60;;;15.80;82.40;;;;;;4979613;28;20124;-82
2021/08/15 03:57:18;;;;;;;1.15;0.80;;;15.90;82.50;;;;;;4995604;28;20046;-82
2021/08/15 03:59:45;;;;;;;1.55;0.85;;;15.80;82.50;;;;;;4995692;28;20065;-81
2021/08/15 04:02:11;;;;;;;1.58;0.90;;;15.80;82.50;;;;;;5014698;28;20160;-82
2021/08/15 04:04:37;;;;;;;1.35;0.90;;;15.80;82.60;;;;;;5032905;28;20132;-82
2021/08/15 04:07:03;;;;;;;0.63;0.57;;;15.80;82.60;;;;;;5015223;28;20465;-82
2021/08/15 04:09:29;;;;;;;0.77;0.65;;;15.80;82.60;;;;;;4985638;28;20033;-82
2021/08/15 04:11:54;;;;;;;0.95;0.80;;;15.70;82.60;;;;;;4995506;28;20029;-82
2021/08/15 04:14:22;;;;;;;0.88;0.70;;;15.70;82.70;;;;;;4979776;28;20046;-82
2021/08/15 04:16:48;;;;;;;1.08;0.70;;;15.70;82.70;;;;;;5001867;28;20037;-82
2021/08/15 04:19:14;;;;;;;0.95;0.70;;;15.80;82.70;;;;;;4998139;28;20396;-82
2021/08/15 04:21:40;;;;;;;0.75;0.70;;;15.60;82.60;;;;;;5015014;28;20038;-82
2021/08/15 04:24:06;;;;;;;2.03;1.00;;;15.80;82.80;;;;;;4997466;28;20049;-82
2021/08/15 04:26:32;;;;;;;1.10;0.85;;;15.70;82.70;;;;;;5013101;28;20114;-82
2021/08/15 04:28:57;;;;;;;0.93;0.60;;;15.70;82.80;;;;;;5012764;28;20062;-82
2021/08/15 04:31:23;;;;;;;0.98;0.82;;;15.70;82.70;;;;;;4995293;28;20034;-82
2021/08/15 04:33:49;;;;;;;0.82;0.70;;;15.70;82.70;;;;;;4995869;28;20042;-82
2021/08/15 04:36:15;;;;;;;0.93;0.70;;;15.70;82.70;;;;;;4978917;28;20041;-82
2021/08/15 04:38:41;;;;;;;0.75;0.65;;;15.80;82.80;;;;;;5029359;28;20378;-82
2021/08/15 04:41:07;;;;;;;1.17;0.88;;;15.70;82.70;;;;;;5014816;28;20057;-82
2021/08/15 04:43:33;;;;;;;0.60;0.60;;;15.80;82.80;;;;;;5032348;28;20404;-82
2021/08/15 04:46:00;;;;;;;0.90;0.70;;;15.80;82.80;;;;;;4995696;28;20045;-82
2021/08/15 04:48:26;;;;;;;1.10;0.80;;;15.80;82.80;;;;;;4995071;28;20044;-82
2021/08/15 04:50:52;;;;;;;1.55;0.90;;;15.80;82.80;;;;;;5012931;28;20045;-82
2021/08/15 04:53:18;;;;;;;0.60;0.60;;;15.90;82.70;;;;;;5014741;28;20033;-82
2021/08/15 04:55:43;;;;;;;0.60;0.60;;;15.90;82.70;;;;;;4993941;28;20034;-82
2021/08/15 04:58:09;;;;;;;0.60;0.50;;;15.90;82.70;;;;;;5012717;28;20040;-82
2021/08/15 05:00:35;;;;;;;1.05;0.80;;;15.90;82.60;;;;;;4995047;28;20038;-81
2021/08/15 05:03:01;;;;;;;1.00;0.80;;;15.90;82.60;;;;;;4978364;28;20379;-81
2021/08/15 05:05:26;;;;;;;0.68;0.65;;;16.00;82.70;;;;;;5013047;28;20045;-82
2021/08/15 05:07:52;;;;;;;1.73;1.05;;;16.00;82.60;;;;;;5000532;28;20090;-80
2021/08/15 05:10:18;;;;;;;1.50;0.80;;;16.00;82.60;;;;;;4999146;28;20038;-82
2021/08/15 05:12:44;;;;;;;0.60;0.60;;;16.00;82.50;;;;;;4994842;28;20058;-82
2021/08/15 05:15:10;;;;;;;1.05;0.70;;;16.10;82.50;;;;;;4995027;28;20042;-81
2021/08/15 05:17:37;;;;;;;1.25;0.73;;;16.10;82.40;;;;;;5020626;28;20065;-81
2021/08/15 05:20:03;;;;;;;0.70;0.60;;;16.10;82.40;;;;;;4993147;28;20042;-81
2021/08/15 05:22:29;;;;;;;1.48;0.88;;;16.10;82.30;;;;;;5042235;28;20038;-81
2021/08/15 05:24:55;;;;;;;1.27;0.77;;;16.20;82.30;;;;;;5047155;28;20097;-81
2021/08/15 05:27:20;;;;;;;1.60;1.08;;;16.20;82.30;;;;;;5029571;28;20042;-81
2021/08/15 05:29:47;;;;;;;1.08;0.90;;;16.20;82.20;;;;;;5045956;28;20041;-81
2021/08/15 05:32:13;;;;;;;1.13;0.85;;;16.30;82.30;;;;;;4990863;28;20507;-82
2021/08/15 05:34:38;;;;;;;0.80;0.70;;;16.30;82.30;;;;;;4979911;28;20065;-81
2021/08/15 05:37:04;;;;;;;0.90;0.90;;;16.30;82.20;;;;;;5032842;28;20049;-81
2021/08/15 05:39:30;;;;;;;1.30;0.90;;;16.40;82.20;;;;;;5004292;28;20136;-81
2021/08/15 05:41:55;;;;;;;1.70;1.05;;;16.40;82.20;;;;;;5005513;28;20079;-82
2021/08/15 05:44:21;;;;;;;1.00;0.90;;;16.40;82.10;;;;;;5028066;28;20048;-80
2021/08/15 05:46:47;;;;;;;1.48;1.10;;;16.50;82.10;;;;;;5012293;28;20029;-80
2021/08/15 05:49:13;;;;;;;1.45;1.17;;;16.60;82.20;;;;;;5032615;28;20037;-80
2021/08/15 05:51:38;;;;;;;2.90;1.27;;;16.50;82.00;;;;;;4995282;28;20034;-81
2021/08/15 05:54:04;;;;;;;1.45;1.20;;;16.50;82.00;;;;;;4992936;28;20038;-81
2021/08/15 05:56:33;;;;;;;1.40;1.17;;;16.60;82.00;;;;;;5008351;28;20049;-81
2021/08/15 05:58:59;;;;;;;1.30;1.17;;;16.60;81.90;;;;;;5035602;28;20046;-81
2021/08/15 06:01:25;;;;;;;2.00;1.30;;;16.70;81.80;;;;;;5001247;28;20033;-81
2021/08/15 06:03:50;;;;;;;2.08;1.27;;;16.70;81.70;;;;;;5035223;28;20128;-81
2021/08/15 06:06:16;;;;;;;2.60;1.50;;;16.80;81.70;;;;;;5017744;28;20477;-81
2021/08/15 06:08:42;;;;;;;3.85;1.73;;;16.80;81.50;;;;;;5001644;28;20393;-81
2021/08/15 06:11:07;;;;;;;2.13;1.20;;;16.80;81.50;;;;;;5000747;28;20034;-81
2021/08/15 06:13:33;;;;;;;2.90;1.50;;;17.00;81.50;;;;;;4997395;28;20038;-81
2021/08/15 06:15:59;;;;;;;2.42;1.38;;;17.00;81.40;;;;;;5031774;28;20428;-81
2021/08/15 06:18:24;;;;;;;2.90;1.67;;;17.10;81.40;;;;;;5017804;28;20614;-81
2021/08/15 06:20:50;;;;;;;2.55;1.33;;;17.10;81.30;;;;;;5035615;28;20037;-81
2021/08/15 06:23:16;;;;;;;3.20;1.60;;;17.20;81.30;;;;;;5001490;28;20132;-81
2021/08/15 06:25:41;;;;;;;3.22;1.63;;;17.20;81.20;;;;;;4998676;28;20047;-81
2021/08/15 06:28:07;;;;;;;3.40;1.88;;;17.30;81.20;;;;;;4982159;28;20045;-81
2021/08/15 06:30:33;;;;;;;2.55;1.80;;;17.30;81.10;;;;;;4998044;28;20042;-82
2021/08/15 06:33:01;;;;;;;3.22;1.90;;;17.30;81.00;;;;;;4980667;28;20045;-82
2021/08/15 06:35:27;;;;;;;2.40;1.60;;;17.40;81.00;;;;;;4981860;28;20045;-81
2021/08/15 06:37:54;;;;;;;3.33;1.48;;;17.40;81.00;;;;;;4980755;28;20042;-81
2021/08/15 06:40:23;;;;;;;2.90;1.98;;;17.50;81.00;;;;;;4997839;28;20532;-81
2021/08/15 06:42:49;;;;;;;5.45;2.40;;;17.60;80.90;;;;;;5014784;28;20037;-81
2021/08/15 06:45:15;;;;;;;3.42;1.90;;;17.60;80.70;;;;;;4997262;28;20417;-81
2021/08/15 06:47:41;;;;;;;2.35;1.67;;;17.70;80.80;;;;;;4998721;28;20030;-81
2021/08/15 06:50:08;;;;;;;2.75;1.55;;;17.80;80.70;;;;;;5017217;28;20033;-80
2021/08/15 06:52:34;;;;;;;3.13;1.70;;;17.80;80.60;;;;;;5000311;28;20064;-81
2021/08/15 06:55:01;;;;;;;2.22;1.55;;;17.90;80.70;;;;;;5034579;28;20033;-80
2021/08/15 06:57:27;;;;;;;3.63;1.77;;;17.90;80.70;;;;;;5016352;28;20064;-81
2021/08/15 06:59:53;;;;;;;4.15;2.15;;;17.90;80.60;;;;;;4999061;28;20064;-80
2021/08/15 07:02:19;;;;;;;3.00;1.40;;;17.90;80.60;;;;;;5016898;28;20488;-81
2021/08/15 07:04:44;;;;;;;3.08;1.80;;;18.10;80.60;;;;;;5016192;28;20069;-81
2021/08/15 07:07:11;;;;;;;1.77;1.38;;;18.10;80.50;;;;;;5016131;28;20037;-81
2021/08/15 07:09:36;;;;;;;3.00;1.80;;;18.20;80.50;;;;;;4997046;28;20033;-82
2021/08/15 07:12:03;;;;;;;2.30;1.40;;;18.20;80.60;;;;;;4980209;28;20418;-82
2021/08/15 07:14:29;;;;;;;3.20;1.65;;;18.20;80.50;;;;;;5014894;28;20038;-81
2021/08/15 07:16:56;;;;;;;2.35;1.60;;;18.30;80.40;;;;;;4964180;28;20511;-81
2021/08/15 07:19:23;;;;;;;2.22;1.60;;;18.50;80.50;;;;;;4980253;28;20044;-82
2021/08/15 07:21:49;;;;;;;3.08;2.00;;;18.40;80.30;;;;;;4996288;28;20049;-81
2021/08/15 07:24:15;;;;;;;2.72;1.73;;;18.50;80.20;;;;;;4979956;28;20073;-82
2021/08/15 07:26:41;;;;;;;1.73;1.42;;;18.50;80.10;;;;;;4980071;28;20120;-81
2021/08/15 07:29:07;;;;;;;2.25;1.42;;;18.50;79.90;;;;;;4981583;28;20041;-81
2021/08/15 07:31:33;;;;;;;1.50;1.00;;;18.60;79.90;;;;;;4982214;28;20029;-81
2021/08/15 07:33:59;;;;;;;2.78;1.70;;;18.60;79.90;;;;;;4986876;28;20037;-81
2021/08/15 07:36:26;;;;;;;2.60;1.50;;;18.70;80.00;;;;;;4980811;28;20033;-81
2021/08/15 07:38:52;;;;;;;2.70;1.52;;;18.70;79.80;;;;;;4997126;28;20042;-81
2021/08/15 07:41:18;;;;;;;2.78;1.60;;;18.80;79.60;;;;;;4980112;28;20052;-82
2021/08/15 07:43:43;;;;;;;2.42;1.48;;;19.00;79.40;;;;;;4996559;28;20557;-80
2021/08/15 07:46:13;;;;;;;2.08;1.27;;;19.10;79.10;;;;;;5011954;28;20037;-81
2021/08/15 07:48:41;;;;;;;1.20;1.00;;;19.20;78.90;;;;;;5000450;28;20032;-81
2021/08/15 07:51:07;;;;;;;2.35;1.27;;;19.30;78.70;;;;;;5009113;28;20064;-81
2021/08/15 07:53:32;;;;;;;1.77;1.13;;;19.40;78.50;;;;;;5013554;28;20042;-80
2021/08/15 07:55:58;;;;;;;1.50;1.00;;;19.50;78.30;;;;;;4996006;28;20030;-80
2021/08/15 07:58:24;;;;;;;2.10;1.20;;;19.70;78.20;;;;;;4995889;28;20490;-80
2021/08/15 08:00:51;;;;;;;1.70;1.17;;;19.80;78.00;;;;;;4979743;28;20037;-80
2021/08/15 08:03:17;;;;;;;2.55;1.40;;;19.90;77.60;;;;;;5013559;28;20052;-80
2021/08/15 08:05:44;;;;;;;3.53;1.30;;;20.00;77.40;;;;;;4995699;28;20108;-80
2021/08/15 08:08:10;;;;;;;2.92;1.30;;;20.20;77.20;;;;;;4995660;28;20505;-81
2021/08/15 08:10:36;;;;;;;2.85;1.48;;;20.40;76.80;;;;;;4995484;28;20073;-80
2021/08/15 08:13:04;;;;;;;2.08;1.30;;;20.60;76.30;;;;;;4995541;28;20038;-80
2021/08/15 08:15:30;;;;;;;2.38;1.30;;;20.70;76.10;;;;;;4995631;28;20057;-80
2021/08/15 08:17:56;;;;;;;2.17;1.38;;;20.80;75.70;;;;;;5013278;28;20046;-81
2021/08/15 08:20:22;;;;;;;3.63;1.50;;;20.80;75.70;;;;;;5013685;28;20034;-80
2021/08/15 08:22:48;;;;;;;2.90;1.45;;;20.80;75.70;;;;;;4980004;28;20482;-80
2021/08/15 08:25:14;;;;;;;1.42;1.08;;;20.80;75.90;;;;;;4980089;28;20042;-81
2021/08/15 08:27:40;;;;;;;2.03;1.27;;;20.80;76.00;;;;;;4995464;28;20041;-81
2021/08/15 08:30:07;;;;;;;2.08;1.50;;;20.70;76.10;;;;;;4995714;28;20037;-81
2021/08/15 08:32:33;;;;;;;2.30;1.23;;;20.70;76.10;;;;;;5015464;28;20033;-81
2021/08/15 08:34:59;;;;;;;1.65;1.08;;;20.80;76.20;;;;;;4998797;28;20155;-82
2021/08/15 08:37:25;;;;;;;3.13;1.35;;;20.80;76.00;;;;;;5032676;28;20040;-79
2021/08/15 08:39:52;;;;;;;2.13;1.20;;;21.00;76.00;;;;;;5014948;28;20061;-80
2021/08/15 08:42:18;;;;;;;1.88;1.17;;;21.20;75.70;;;;;;4980833;28;20086;-80
2021/08/15 08:44:44;;;;;;;2.05;1.23;;;21.20;75.50;;;;;;5012724;28;20038;-80
2021/08/15 08:47:11;;;;;;;1.95;1.05;;;21.40;75.10;;;;;;4995070;28;20128;-80
2021/08/15 08:49:41;;;;;;;2.15;1.08;;;21.50;75.00;;;;;;4979078;28;20026;-80
2021/08/15 08:52:07;;;;;;;2.22;1.20;;;21.40;74.90;;;;;;4963108;28;20037;-80
2021/08/15 08:54:35;;;;;;;1.88;1.10;;;21.40;75.10;;;;;;4979033;28;20084;-80
2021/08/15 08:57:01;;;;;;;2.03;1.30;;;21.50;75.20;;;;;;4994964;28;20042;-80
2021/08/15 08:59:26;;;;;;;1.67;1.08;;;21.50;75.20;;;;;;4994764;28;20054;-81
2021/08/15 09:01:53;;;;;;;1.80;1.13;;;21.50;75.10;;;;;;4994995;28;20042;-81
2021/08/15 09:04:19;;;;;;;1.55;1.00;;;21.60;75.00;;;;;;4978158;28;20038;-80
2021/08/15 09:06:44;;;;;;;1.88;1.20;;;21.60;75.00;;;;;;4994976;28;20034;-80
2021/08/15 09:09:15;;;;;;;3.08;1.50;;;21.60;75.10;;;;;;4994827;28;20050;-79
2021/08/15 09:11:44;;;;;;;2.17;1.30;;;21.50;75.30;;;;;;4994609;28;20092;-80
2021/08/15 09:14:12;;;;;;;3.17;1.60;;;21.40;75.40;;;;;;5012267;28;20129;-80
2021/08/15 09:17:02;;;;;;;1.63;1.30;;;21.40;75.60;;;;;;4978296;28;20037;-80
2021/08/15 09:19:46;;;;;;;1.87;1.00;;;21.40;75.60;;;;;;4994532;28;20034;-79
2021/08/15 09:22:25;;;;;;;1.90;1.30;;;21.60;75.80;;;;;;4978921;28;20042;-80
2021/08/15 09:25:06;;;;;;;2.15;1.08;;;21.80;75.40;;;;;;4994650;28;20441;-80
2021/08/15 09:27:37;;;;;;;1.98;1.20;;;22.00;74.80;;;;;;4994088;28;20510;-80
2021/08/15 09:30:22;;;;;;;2.55;1.30;;;22.20;74.60;;;;;;4995586;28;20042;-79
2021/08/15 09:33:06;;;;;;;1.77;1.08;;;22.30;74.30;;;;;;5008623;28;20026;-80
2021/08/15 09:35:42;;;;;;;2.13;1.02;;;22.40;74.00;;;;;;4994916;28;20073;-80
2021/08/15 09:38:11;;;;;;;1.38;1.02;;;22.60;74.00;;;;;;4994543;28;20034;-79
2021/08/15 09:40:40;;;;;;;1.70;1.17;;;22.60;73.70;;;;;;4979431;28;20038;-80
2021/08/15 09:43:09;;;;;;;2.60;1.40;;;22.70;73.50;;;;;;4994432;28;20049;-80
2021/08/15 09:45:47;;;;;;;3.35;1.50;;;22.80;73.40;;;;;;4998452;28;20408;-79
2021/08/15 09:48:35;;;;;;;1.73;1.17;;;22.90;73.00;;;;;;4979505;28;20073;-82
2021/08/15 09:51:08;;;;;;;2.40;1.30;;;22.90;72.80;;;;;;4994645;28;20045;-79
2021/08/15 09:53:35;;;;;;;1.80;1.27;;;23.00;72.80;;;;;;5012047;28;20069;-79
2021/08/15 09:56:03;;;;;;;1.85;1.20;;;23.10;72.70;;;;;;4977920;28;20050;-79
2021/08/15 09:58:28;;;;;;;2.38;1.30;;;23.20;72.40;;;;;;4977932;28;20486;-79
2021/08/15 10:00:55;;;;;;;1.85;1.00;;;23.30;72.20;;;;;;5011758;28;20046;-80
2021/08/15 10:03:22;;;;;;;1.98;1.23;;;23.40;72.00;;;;;;5033331;28;20048;-78
2021/08/15 10:05:49;;;;;;;1.95;1.05;;;23.50;72.00;;;;;;5034209;28;20026;-79
2021/08/15 10:08:15;;;;;;;1.67;1.10;;;23.60;71.70;;;;;;4964929;28;20060;-79
2021/08/15 10:10:41;;;;;;;2.47;1.20;;;23.70;71.70;;;;;;5012690;28;20084;-81
2021/08/15 10:13:08;;;;;;;2.33;1.10;;;23.70;71.30;;;;;;4997986;28;20091;-80
2021/08/15 10:15:36;;;;;;;2.05;1.20;;;23.50;71.30;;;;;;5014165;28;20116;-79
2021/08/15 10:18:07;;;;;;;1.15;1.00;;;23.50;71.50;;;;;;4994692;28;20117;-79
2021/08/15 10:20:33;;;;;;;;;;;23.60;71.30;;;;;;5012518;28;20041;-80
2021/08/15 10:23:08;;;;;;;1.33;1.00;;;23.80;71.10;;;;;;5011424;28;19960;-79
2021/08/15 10:25:38;;;;;;;1.10;0.90;;;24.10;70.70;;;;;;4978129;28;20034;-80
2021/08/15 10:28:05;;;;;;;1.38;0.82;;;24.10;70.40;;;;;;4978574;28;20493;-79
2021/08/15 10:30:44;;;;;;;1.40;1.00;;;24.20;70.20;;;;;;4993917;28;20037;-79
2021/08/15 10:33:20;;;;;;;1.23;0.90;;;24.20;70.00;;;;;;5012260;28;20115;-79
2021/08/15 10:36:18;;;;;;;1.63;0.90;;;24.30;70.60;;;;;;4980650;28;20065;-79
2021/08/15 10:38:43;;;;;;;1.33;0.98;;;24.40;69.70;;;;;;4996849;28;20600;-79
2021/08/15 10:41:09;;;;;;;1.38;1.00;;;24.50;70.20;;;;;;4980702;28;20140;-79
2021/08/15 10:43:56;;;;;;;1.15;0.90;;;24.50;69.30;;;;;;5014356;28;20053;-79
2021/08/15 10:46:23;;;;;;;1.52;1.10;;;24.50;69.20;;;;;;4983579;28;20045;-78
2021/08/15 10:49:02;;;;;;;1.27;1.00;;;24.50;69.10;;;;;;4996647;28;20049;-79
2021/08/15 10:51:42;;;;;;;2.05;1.20;;;24.50;68.80;;;;;;4996966;28;20030;-78
2021/08/15 10:54:28;;;;;;;1.33;0.90;;;24.50;68.80;;;;;;4997322;28;20049;-78
2021/08/15 10:56:56;;;;;;;1.48;1.05;;;24.60;68.90;;;;;;5033795;28;20041;-79
2021/08/15 10:59:42;;;;;;;1.13;0.90;;;24.50;68.80;;;;;;4999138;28;20037;-79
2021/08/15 11:02:10;;;;;;;1.25;0.90;;;24.60;68.70;;;;;;5034061;28;20041;-79
2021/08/15 11:04:37;;;;;;;1.10;1.00;;;24.70;68.60;;;;;;4983762;28;20432;-79
2021/08/15 11:07:04;;;;;;;1.00;0.80;;;24.70;68.40;;;;;;5033946;28;20057;-78
2021/08/15 11:09:52;;;;;;;1.58;1.00;;;24.80;68.20;;;;;;4983654;28;20038;-78
2021/08/15 11:12:18;;;;;;;1.40;0.90;;;24.90;67.90;;;;;;5016385;28;20091;-79
2021/08/15 11:15:03;;;;;;;0.93;0.80;;;25.00;67.80;;;;;;4999448;28;20037;-80
2021/08/15 11:17:31;;;;;;;2.03;0.85;;;25.00;67.40;;;;;;5016135;28;20095;-78
2021/08/15 11:20:16;;;;;;;0.70;0.70;;;25.00;67.20;;;;;;5033971;28;20077;-78
2021/08/15 11:22:42;;;;;;;1.13;0.80;;;25.00;67.40;;;;;;4999223;28;20121;-78
2021/08/15 11:25:08;;;;;;;1.27;0.60;;;24.90;67.50;;;;;;5032733;28;20140;-80
2021/08/15 11:27:37;;;;;;;0.90;0.80;;;24.90;67.40;;;;;;4981814;28;20037;-79
2021/08/15 11:30:12;;;;;;;0.93;0.60;;;24.90;67.40;;;;;;4966232;28;20429;-78
2021/08/15 11:32:39;;;;;;;0.98;0.70;;;24.80;67.40;;;;;;4995621;28;20038;-81
2021/08/15 11:35:10;;;;;;;0.77;0.65;;;24.90;67.30;;;;;;5033977;28;20045;-79
2021/08/15 11:37:46;;;;;;;0.98;0.75;;;25.10;67.20;;;;;;5032137;28;20120;-79
2021/08/15 11:40:16;;;;;;;1.27;0.80;;;25.10;67.00;;;;;;5033940;28;20044;-78
2021/08/15 11:42:44;;;;;;;0.93;0.80;;;25.10;66.90;;;;;;5006638;28;20045;-79
2021/08/15 11:45:11;;;;;;;1.35;0.70;;;25.10;66.90;;;;;;4995525;28;20141;-79
2021/08/15 11:47:38;;;;;;;0.90;0.65;;;25.10;66.70;;;;;;5013642;28;20410;-78
2021/08/15 11:50:18;;;;;;;1.20;0.70;;;25.20;66.70;;;;;;5010755;28;20477;-79
2021/08/15 11:52:46;;;;;;;1.63;0.82;;;25.20;66.70;;;;;;5015376;28;20029;-78
2021/08/15 11:55:28;;;;;;;1.55;0.88;;;25.10;66.90;;;;;;4999119;28;20464;-78
2021/08/15 11:58:00;;;;;;;1.58;0.90;;;25.20;67.00;;;;;;4998972;28;20131;-79
2021/08/15 12:00:35;;;;;;;1.55;0.77;;;25.20;67.00;;;;;;5015432;28;20084;-80
2021/08/15 12:03:17;;;;;;;1.00;0.70;;;25.20;66.80;;;;;;4998455;28;20038;-79
2021/08/15 12:05:47;;;;;;;1.25;0.60;;;25.20;66.70;;;;;;5032889;28;20485;-79
2021/08/15 12:08:15;;;;;;;1.40;0.75;;;25.20;66.90;;;;;;5015523;28;20130;-80
2021/08/15 12:10:47;;;;;;;1.00;0.80;;;25.10;66.90;;;;;;5016136;28;20029;-79
2021/08/15 12:13:21;;;;;;;1.17;0.70;;;25.20;67.10;;;;;;4994616;28;20101;-78
2021/08/15 12:15:54;;;;;;;0.60;0.60;;;25.20;67.10;;;;;;4980262;28;20030;-79
2021/08/15 12:18:34;;;;;;;1.27;0.70;;;25.20;66.90;;;;;;4995490;28;20042;-79
2021/08/15 12:21:03;;;;;;;0.60;0.60;;;25.30;66.70;;;;;;4963886;28;20042;-79
2021/08/15 12:23:31;;;;;;;1.17;0.88;;;25.40;66.60;;;;;;5012924;28;20054;-79
2021/08/15 12:26:08;;;;;;;1.55;0.65;;;25.40;66.50;;;;;;5013277;28;20041;-79
2021/08/15 12:28:36;;;;;;;1.08;0.60;;;25.40;66.40;;;;;;4978799;28;20053;-78
2021/08/15 12:31:26;;;;;;;0.63;0.60;;;25.40;66.60;;;;;;4995860;28;20038;-78
2021/08/15 12:34:12;;;;;;;1.10;0.60;;;25.30;66.70;;;;;;4979099;28;20034;-79
2021/08/15 12:36:51;;;;;;;7.65;1.40;;;25.30;66.80;;;;;;5012917;28;20122;-79
2021/08/15 12:39:25;;;;;;;1.85;0.80;;;25.40;66.70;;;;;;5012742;28;20402;-79
2021/08/15 12:42:11;;;;;;;0.90;0.57;;;25.40;66.40;;;;;;4996377;28;20030;-79
2021/08/15 12:44:52;;;;;;;0.85;0.80;;;25.40;66.40;;;;;;4995588;28;20053;-80
2021/08/15 12:47:29;;;;;;;1.00;0.70;;;25.50;66.30;;;;;;4978700;28;20549;-78
2021/08/15 12:50:13;;;;;;;0.60;0.60;;;25.50;66.20;;;;;;5012520;28;20026;-79
2021/08/15 12:52:49;;;;;;;0.63;0.60;;;25.50;66.30;;;;;;5013249;28;20036;-78